sensor_id;sensor_type;location;lat;lon;timestamp;P1;durP1;ratioP1;P2;durP2;ratioP2
9799;SDS011;4939;52.00085300;4.17406100;2023-02-28T00:01:26;7.45;;;2.58;;
9799;SDS011;4939;52.00085300;4.17406100;2023-02-28T00:03:52;6.70;;;2.78;;
9799;SDS011;4939;52.00085300;4.17406100;2023-02-28T00:06:18;6.97;;;2.42;;
9799;SDS011;4939;52.00085300;4.17406100;2023-02-28T00:08:45;6.80;;;2.58;;
9799;SDS011;4939;52.00085300;4.17406100;2023-02-28T00:11:12;5.80;;;2.85;;
9799;SDS011;4939;52.00085300;4.17406100;2023-02-28T00:13:40;5.38;;;2.65;;
9799;SDS011;4939;52.00085300;4.17406100;2023-02-28T00:16:11;7.13;;;2.50;;
9799;SDS011;4939;52.00085300;4.17406100;2023-02-28T00:18:39;8.40;;;2.67;;
9799;SDS011;4939;52.00085300;4.17406100;2023-02-28T00:21:06;6.05;;;2.40;;
9799;SDS011;4939;52.00085300;4.17406100;2023-02-28T00:23:33;5.00;;;2.53;;
9799;SDS011;4939;52.00085300;4.17406100;2023-02-28T00:25:59;7.18;;;2.65;;
9799;SDS011;4939;52.00085300;4.17406100;2023-02-28T00:28:29;6.20;;;2.70;;
9799;SDS011;4939;52.00085300;4.17406100;2023-02-28T00:30:56;7.25;;;2.55;;
9799;SDS011;4939;52.00085300;4.17406100;2023-02-28T00:33:22;7.45;;;2.70;;
9799;SDS011;4939;52.00085300;4.17406100;2023-02-28T00:35:49;4.20;;;2.20;;
9799;SDS011;4939;52.00085300;4.17406100;2023-02-28T00:38:14;9.60;;;2.92;;
9799;SDS011;4939;52.00085300;4.17406100;2023-02-28T00:40:41;5.80;;;2.47;;
9799;SDS011;4939;52.00085300;4.17406100;2023-02-28T00:43:06;8.32;;;2.53;;
9799;SDS011;4939;52.00085300;4.17406100;2023-02-28T00:45:32;5.90;;;2.70;;
9799;SDS011;4939;52.00085300;4.17406100;2023-02-28T00:47:58;5.07;;;2.28;;
9799;SDS011;4939;52.00085300;4.17406100;2023-02-28T00:50:25;5.30;;;2.47;;
9799;SDS011;4939;52.00085300;4.17406100;2023-02-28T00:52:50;6.45;;;2.47;;
9799;SDS011;4939;52.00085300;4.17406100;2023-02-28T00:55:16;8.75;;;2.75;;
9799;SDS011;4939;52.00085300;4.17406100;2023-02-28T00:57:41;4.50;;;2.30;;
9799;SDS011;4939;52.00085300;4.17406100;2023-02-28T01:00:08;5.72;;;2.28;;
9799;SDS011;4939;52.00085300;4.17406100;2023-02-28T01:02:34;6.57;;;1.92;;
9799;SDS011;4939;52.00085300;4.17406100;2023-02-28T01:05:00;5.18;;;2.10;;
9799;SDS011;4939;52.00085300;4.17406100;2023-02-28T01:07:25;8.02;;;2.30;;
9799;SDS011;4939;52.00085300;4.17406100;2023-02-28T01:09:51;9.30;;;2.35;;
9799;SDS011;4939;52.00085300;4.17406100;2023-02-28T01:12:17;6.32;;;2.53;;
9799;SDS011;4939;52.00085300;4.17406100;2023-02-28T01:14:42;4.38;;;2.13;;
9799;SDS011;4939;52.00085300;4.17406100;2023-02-28T01:17:08;7.65;;;2.30;;
9799;SDS011;4939;52.00085300;4.17406100;2023-02-28T01:19:34;6.68;;;2.22;;
9799;SDS011;4939;52.00085300;4.17406100;2023-02-28T01:22:01;4.18;;;2.10;;
9799;SDS011;4939;52.00085300;4.17406100;2023-02-28T01:24:28;4.50;;;2.13;;
9799;SDS011;4939;52.00085300;4.17406100;2023-02-28T01:26:54;4.68;;;2.00;;
9799;SDS011;4939;52.00085300;4.17406100;2023-02-28T01:29:19;4.68;;;2.15;;
9799;SDS011;4939;52.00085300;4.17406100;2023-02-28T01:31:45;4.57;;;2.30;;
9799;SDS011;4939;52.00085300;4.17406100;2023-02-28T01:34:11;6.45;;;2.45;;
9799;SDS011;4939;52.00085300;4.17406100;2023-02-28T01:36:37;7.00;;;2.67;;
9799;SDS011;4939;52.00085300;4.17406100;2023-02-28T01:39:03;4.53;;;2.17;;
9799;SDS011;4939;52.00085300;4.17406100;2023-02-28T01:41:30;5.70;;;2.70;;
9799;SDS011;4939;52.00085300;4.17406100;2023-02-28T01:43:58;5.57;;;2.60;;
9799;SDS011;4939;52.00085300;4.17406100;2023-02-28T01:46:24;4.00;;;2.05;;
9799;SDS011;4939;52.00085300;4.17406100;2023-02-28T01:51:46;5.82;;;2.50;;
9799;SDS011;4939;52.00085300;4.17406100;2023-02-28T01:54:18;7.32;;;2.10;;
9799;SDS011;4939;52.00085300;4.17406100;2023-02-28T01:56:52;7.32;;;2.28;;
9799;SDS011;4939;52.00085300;4.17406100;2023-02-28T01:59:54;3.80;;;2.10;;
9799;SDS011;4939;52.00085300;4.17406100;2023-02-28T02:02:27;4.70;;;1.90;;
9799;SDS011;4939;52.00085300;4.17406100;2023-02-28T02:07:26;4.30;;;2.25;;
9799;SDS011;4939;52.00085300;4.17406100;2023-02-28T02:10:01;9.38;;;2.30;;
9799;SDS011;4939;52.00085300;4.17406100;2023-02-28T02:15:16;6.85;;;2.83;;
9799;SDS011;4939;52.00085300;4.17406100;2023-02-28T02:17:50;5.82;;;2.58;;
9799;SDS011;4939;52.00085300;4.17406100;2023-02-28T02:25:39;6.05;;;3.17;;
9799;SDS011;4939;52.00085300;4.17406100;2023-02-28T02:28:22;8.25;;;2.88;;
9799;SDS011;4939;52.00085300;4.17406100;2023-02-28T02:36:35;8.63;;;3.38;;
9799;SDS011;4939;52.00085300;4.17406100;2023-02-28T02:39:22;8.77;;;2.92;;
9799;SDS011;4939;52.00085300;4.17406100;2023-02-28T02:42:01;6.47;;;3.05;;
9799;SDS011;4939;52.00085300;4.17406100;2023-02-28T02:44:47;8.43;;;3.22;;
9799;SDS011;4939;52.00085300;4.17406100;2023-02-28T02:47:19;8.55;;;3.08;;
9799;SDS011;4939;52.00085300;4.17406100;2023-02-28T02:49:50;9.90;;;3.20;;
9799;SDS011;4939;52.00085300;4.17406100;2023-02-28T02:52:20;9.75;;;3.60;;
9799;SDS011;4939;52.00085300;4.17406100;2023-02-28T02:54:52;7.38;;;3.83;;
9799;SDS011;4939;52.00085300;4.17406100;2023-02-28T02:57:35;6.38;;;3.30;;
9799;SDS011;4939;52.00085300;4.17406100;2023-02-28T03:00:05;8.43;;;3.40;;
9799;SDS011;4939;52.00085300;4.17406100;2023-02-28T03:02:34;9.52;;;3.95;;
9799;SDS011;4939;52.00085300;4.17406100;2023-02-28T03:05:04;5.90;;;2.72;;
9799;SDS011;4939;52.00085300;4.17406100;2023-02-28T03:07:37;8.05;;;3.40;;
9799;SDS011;4939;52.00085300;4.17406100;2023-02-28T03:10:02;8.27;;;3.28;;
9799;SDS011;4939;52.00085300;4.17406100;2023-02-28T03:12:49;7.47;;;3.33;;
9799;SDS011;4939;52.00085300;4.17406100;2023-02-28T03:15:26;7.70;;;3.30;;
9799;SDS011;4939;52.00085300;4.17406100;2023-02-28T03:18:03;6.80;;;2.85;;
9799;SDS011;4939;52.00085300;4.17406100;2023-02-28T03:20:38;7.15;;;3.10;;
9799;SDS011;4939;52.00085300;4.17406100;2023-02-28T03:26:13;6.38;;;3.10;;
9799;SDS011;4939;52.00085300;4.17406100;2023-02-28T03:28:56;7.15;;;3.13;;
9799;SDS011;4939;52.00085300;4.17406100;2023-02-28T03:31:34;8.82;;;3.63;;
9799;SDS011;4939;52.00085300;4.17406100;2023-02-28T03:34:07;10.73;;;3.80;;
9799;SDS011;4939;52.00085300;4.17406100;2023-02-28T03:36:55;7.45;;;3.50;;
9799;SDS011;4939;52.00085300;4.17406100;2023-02-28T03:42:14;6.78;;;3.28;;
9799;SDS011;4939;52.00085300;4.17406100;2023-02-28T03:44:48;8.00;;;3.28;;
9799;SDS011;4939;52.00085300;4.17406100;2023-02-28T03:47:19;10.05;;;3.90;;
9799;SDS011;4939;52.00085300;4.17406100;2023-02-28T03:50:02;8.80;;;3.67;;
9799;SDS011;4939;52.00085300;4.17406100;2023-02-28T03:52:33;8.50;;;3.67;;
9799;SDS011;4939;52.00085300;4.17406100;2023-02-28T03:55:05;11.20;;;3.80;;
9799;SDS011;4939;52.00085300;4.17406100;2023-02-28T04:00:39;7.90;;;3.67;;
9799;SDS011;4939;52.00085300;4.17406100;2023-02-28T04:03:08;8.48;;;3.55;;
9799;SDS011;4939;52.00085300;4.17406100;2023-02-28T04:05:34;6.97;;;3.47;;
9799;SDS011;4939;52.00085300;4.17406100;2023-02-28T04:08:15;10.43;;;4.30;;
9799;SDS011;4939;52.00085300;4.17406100;2023-02-28T04:10:41;9.95;;;3.97;;
9799;SDS011;4939;52.00085300;4.17406100;2023-02-28T04:13:10;8.35;;;3.70;;
9799;SDS011;4939;52.00085300;4.17406100;2023-02-28T04:15:35;8.57;;;3.92;;
9799;SDS011;4939;52.00085300;4.17406100;2023-02-28T04:18:01;8.05;;;3.97;;
9799;SDS011;4939;52.00085300;4.17406100;2023-02-28T04:20:27;8.73;;;3.95;;
9799;SDS011;4939;52.00085300;4.17406100;2023-02-28T04:22:53;8.93;;;3.75;;
9799;SDS011;4939;52.00085300;4.17406100;2023-02-28T04:25:19;12.82;;;3.55;;
9799;SDS011;4939;52.00085300;4.17406100;2023-02-28T04:27:44;8.40;;;3.97;;
9799;SDS011;4939;52.00085300;4.17406100;2023-02-28T04:30:10;7.50;;;3.50;;
9799;SDS011;4939;52.00085300;4.17406100;2023-02-28T04:32:36;10.27;;;3.88;;
9799;SDS011;4939;52.00085300;4.17406100;2023-02-28T04:35:02;11.93;;;3.95;;
9799;SDS011;4939;52.00085300;4.17406100;2023-02-28T04:37:29;9.73;;;3.78;;
9799;SDS011;4939;52.00085300;4.17406100;2023-02-28T04:39:55;9.65;;;3.75;;
9799;SDS011;4939;52.00085300;4.17406100;2023-02-28T04:42:20;9.82;;;3.80;;
9799;SDS011;4939;52.00085300;4.17406100;2023-02-28T04:44:46;10.27;;;4.45;;
9799;SDS011;4939;52.00085300;4.17406100;2023-02-28T04:47:12;9.77;;;4.43;;
9799;SDS011;4939;52.00085300;4.17406100;2023-02-28T04:49:38;10.50;;;4.15;;
9799;SDS011;4939;52.00085300;4.17406100;2023-02-28T04:52:03;8.88;;;4.18;;
9799;SDS011;4939;52.00085300;4.17406100;2023-02-28T04:54:29;13.63;;;4.07;;
9799;SDS011;4939;52.00085300;4.17406100;2023-02-28T04:56:55;8.77;;;4.18;;
9799;SDS011;4939;52.00085300;4.17406100;2023-02-28T04:59:21;9.18;;;4.25;;
9799;SDS011;4939;52.00085300;4.17406100;2023-02-28T05:01:47;14.95;;;4.65;;
9799;SDS011;4939;52.00085300;4.17406100;2023-02-28T05:04:14;9.38;;;4.43;;
9799;SDS011;4939;52.00085300;4.17406100;2023-02-28T05:06:40;8.63;;;4.68;;
9799;SDS011;4939;52.00085300;4.17406100;2023-02-28T05:09:05;12.32;;;5.18;;
9799;SDS011;4939;52.00085300;4.17406100;2023-02-28T05:11:33;13.82;;;5.40;;
9799;SDS011;4939;52.00085300;4.17406100;2023-02-28T05:14:04;10.25;;;4.82;;
9799;SDS011;4939;52.00085300;4.17406100;2023-02-28T05:16:32;14.80;;;5.60;;
9799;SDS011;4939;52.00085300;4.17406100;2023-02-28T05:18:58;11.60;;;5.35;;
9799;SDS011;4939;52.00085300;4.17406100;2023-02-28T05:21:25;12.77;;;4.93;;
9799;SDS011;4939;52.00085300;4.17406100;2023-02-28T05:23:54;10.68;;;4.18;;
9799;SDS011;4939;52.00085300;4.17406100;2023-02-28T05:26:21;11.55;;;4.28;;
9799;SDS011;4939;52.00085300;4.17406100;2023-02-28T05:28:47;9.70;;;4.28;;
9799;SDS011;4939;52.00085300;4.17406100;2023-02-28T05:31:13;11.25;;;4.40;;
9799;SDS011;4939;52.00085300;4.17406100;2023-02-28T05:33:39;10.95;;;3.97;;
9799;SDS011;4939;52.00085300;4.17406100;2023-02-28T05:36:05;10.20;;;4.10;;
9799;SDS011;4939;52.00085300;4.17406100;2023-02-28T05:38:31;9.05;;;3.88;;
9799;SDS011;4939;52.00085300;4.17406100;2023-02-28T05:40:57;7.95;;;3.85;;
9799;SDS011;4939;52.00085300;4.17406100;2023-02-28T05:43:23;9.50;;;4.18;;
9799;SDS011;4939;52.00085300;4.17406100;2023-02-28T05:45:48;9.00;;;4.70;;
9799;SDS011;4939;52.00085300;4.17406100;2023-02-28T05:48:14;12.50;;;4.90;;
9799;SDS011;4939;52.00085300;4.17406100;2023-02-28T05:50:40;10.30;;;4.72;;
9799;SDS011;4939;52.00085300;4.17406100;2023-02-28T05:53:07;12.93;;;5.25;;
9799;SDS011;4939;52.00085300;4.17406100;2023-02-28T05:55:33;15.73;;;5.35;;
9799;SDS011;4939;52.00085300;4.17406100;2023-02-28T05:58:01;12.88;;;6.20;;
9799;SDS011;4939;52.00085300;4.17406100;2023-02-28T06:00:26;14.77;;;6.82;;
9799;SDS011;4939;52.00085300;4.17406100;2023-02-28T06:02:52;14.50;;;6.65;;
9799;SDS011;4939;52.00085300;4.17406100;2023-02-28T06:05:23;12.25;;;5.93;;
9799;SDS011;4939;52.00085300;4.17406100;2023-02-28T06:07:49;11.65;;;6.28;;
9799;SDS011;4939;52.00085300;4.17406100;2023-02-28T06:10:15;12.73;;;6.25;;
9799;SDS011;4939;52.00085300;4.17406100;2023-02-28T06:12:41;15.43;;;6.72;;
9799;SDS011;4939;52.00085300;4.17406100;2023-02-28T06:15:17;15.32;;;7.30;;
9799;SDS011;4939;52.00085300;4.17406100;2023-02-28T06:17:43;14.27;;;7.05;;
9799;SDS011;4939;52.00085300;4.17406100;2023-02-28T06:20:09;16.23;;;6.68;;
9799;SDS011;4939;52.00085300;4.17406100;2023-02-28T06:22:40;13.32;;;6.03;;
9799;SDS011;4939;52.00085300;4.17406100;2023-02-28T06:25:06;14.98;;;6.80;;
9799;SDS011;4939;52.00085300;4.17406100;2023-02-28T06:27:32;15.70;;;6.47;;
9799;SDS011;4939;52.00085300;4.17406100;2023-02-28T06:29:58;12.18;;;5.88;;
9799;SDS011;4939;52.00085300;4.17406100;2023-02-28T06:32:24;14.70;;;6.63;;
9799;SDS011;4939;52.00085300;4.17406100;2023-02-28T06:34:50;14.77;;;6.50;;
9799;SDS011;4939;52.00085300;4.17406100;2023-02-28T06:37:16;13.15;;;6.15;;
9799;SDS011;4939;52.00085300;4.17406100;2023-02-28T06:39:42;14.32;;;6.50;;
9799;SDS011;4939;52.00085300;4.17406100;2023-02-28T06:42:08;13.10;;;6.35;;
9799;SDS011;4939;52.00085300;4.17406100;2023-02-28T06:44:34;12.65;;;6.00;;
9799;SDS011;4939;52.00085300;4.17406100;2023-02-28T06:47:01;13.10;;;6.13;;
9799;SDS011;4939;52.00085300;4.17406100;2023-02-28T06:49:28;15.05;;;6.40;;
9799;SDS011;4939;52.00085300;4.17406100;2023-02-28T06:51:55;16.52;;;7.55;;
9799;SDS011;4939;52.00085300;4.17406100;2023-02-28T06:54:21;13.35;;;6.20;;
9799;SDS011;4939;52.00085300;4.17406100;2023-02-28T06:56:47;14.95;;;6.00;;
9799;SDS011;4939;52.00085300;4.17406100;2023-02-28T06:59:13;15.75;;;7.10;;
9799;SDS011;4939;52.00085300;4.17406100;2023-02-28T07:01:38;16.13;;;6.70;;
9799;SDS011;4939;52.00085300;4.17406100;2023-02-28T07:04:05;15.05;;;6.47;;
9799;SDS011;4939;52.00085300;4.17406100;2023-02-28T07:06:31;14.55;;;6.35;;
9799;SDS011;4939;52.00085300;4.17406100;2023-02-28T07:08:58;15.50;;;6.63;;
9799;SDS011;4939;52.00085300;4.17406100;2023-02-28T07:11:25;14.82;;;6.80;;
9799;SDS011;4939;52.00085300;4.17406100;2023-02-28T07:13:53;14.65;;;6.47;;
9799;SDS011;4939;52.00085300;4.17406100;2023-02-28T07:16:21;16.63;;;6.68;;
9799;SDS011;4939;52.00085300;4.17406100;2023-02-28T07:18:47;15.82;;;6.10;;
9799;SDS011;4939;52.00085300;4.17406100;2023-02-28T07:21:13;17.95;;;6.40;;
9799;SDS011;4939;52.00085300;4.17406100;2023-02-28T07:23:39;16.67;;;6.93;;
9799;SDS011;4939;52.00085300;4.17406100;2023-02-28T07:26:07;17.35;;;7.00;;
9799;SDS011;4939;52.00085300;4.17406100;2023-02-28T07:28:40;15.05;;;6.53;;
9799;SDS011;4939;52.00085300;4.17406100;2023-02-28T07:31:08;15.48;;;6.25;;
9799;SDS011;4939;52.00085300;4.17406100;2023-02-28T07:33:34;17.00;;;6.60;;
9799;SDS011;4939;52.00085300;4.17406100;2023-02-28T07:36:04;19.83;;;7.25;;
9799;SDS011;4939;52.00085300;4.17406100;2023-02-28T07:38:35;14.02;;;6.55;;
9799;SDS011;4939;52.00085300;4.17406100;2023-02-28T07:41:02;18.55;;;7.75;;
9799;SDS011;4939;52.00085300;4.17406100;2023-02-28T07:43:33;14.63;;;6.55;;
9799;SDS011;4939;52.00085300;4.17406100;2023-02-28T07:46:04;14.20;;;6.97;;
9799;SDS011;4939;52.00085300;4.17406100;2023-02-28T07:48:32;14.27;;;6.47;;
9799;SDS011;4939;52.00085300;4.17406100;2023-02-28T07:50:58;16.75;;;6.95;;
9799;SDS011;4939;52.00085300;4.17406100;2023-02-28T07:53:25;10.60;;;5.72;;
9799;SDS011;4939;52.00085300;4.17406100;2023-02-28T07:56:01;14.60;;;6.53;;
9799;SDS011;4939;52.00085300;4.17406100;2023-02-28T07:58:28;15.13;;;6.43;;
9799;SDS011;4939;52.00085300;4.17406100;2023-02-28T08:00:55;14.73;;;6.53;;
9799;SDS011;4939;52.00085300;4.17406100;2023-02-28T08:03:22;12.88;;;5.90;;
9799;SDS011;4939;52.00085300;4.17406100;2023-02-28T08:05:48;13.38;;;6.20;;
9799;SDS011;4939;52.00085300;4.17406100;2023-02-28T08:08:14;11.60;;;5.47;;
9799;SDS011;4939;52.00085300;4.17406100;2023-02-28T08:10:42;15.02;;;5.13;;
9799;SDS011;4939;52.00085300;4.17406100;2023-02-28T08:13:09;10.88;;;4.97;;
9799;SDS011;4939;52.00085300;4.17406100;2023-02-28T08:15:34;14.10;;;5.78;;
9799;SDS011;4939;52.00085300;4.17406100;2023-02-28T08:18:01;11.48;;;5.15;;
9799;SDS011;4939;52.00085300;4.17406100;2023-02-28T08:20:27;15.20;;;6.20;;
9799;SDS011;4939;52.00085300;4.17406100;2023-02-28T08:22:53;14.05;;;5.93;;
9799;SDS011;4939;52.00085300;4.17406100;2023-02-28T08:25:19;11.55;;;5.97;;
9799;SDS011;4939;52.00085300;4.17406100;2023-02-28T08:27:45;15.73;;;6.07;;
9799;SDS011;4939;52.00085300;4.17406100;2023-02-28T08:30:11;20.08;;;6.88;;
9799;SDS011;4939;52.00085300;4.17406100;2023-02-28T08:32:38;19.25;;;9.95;;
9799;SDS011;4939;52.00085300;4.17406100;2023-02-28T08:35:04;13.45;;;7.63;;
9799;SDS011;4939;52.00085300;4.17406100;2023-02-28T08:37:30;15.60;;;7.55;;
9799;SDS011;4939;52.00085300;4.17406100;2023-02-28T08:39:57;19.30;;;7.80;;
9799;SDS011;4939;52.00085300;4.17406100;2023-02-28T08:42:23;14.55;;;7.55;;
9799;SDS011;4939;52.00085300;4.17406100;2023-02-28T08:44:49;16.02;;;7.93;;
9799;SDS011;4939;52.00085300;4.17406100;2023-02-28T08:47:15;18.23;;;8.38;;
9799;SDS011;4939;52.00085300;4.17406100;2023-02-28T08:49:42;16.33;;;8.25;;
9799;SDS011;4939;52.00085300;4.17406100;2023-02-28T08:52:08;17.80;;;8.02;;
9799;SDS011;4939;52.00085300;4.17406100;2023-02-28T08:54:34;17.80;;;8.10;;
9799;SDS011;4939;52.00085300;4.17406100;2023-02-28T08:57:00;16.38;;;8.40;;
9799;SDS011;4939;52.00085300;4.17406100;2023-02-28T08:59:27;17.92;;;8.45;;
9799;SDS011;4939;52.00085300;4.17406100;2023-02-28T09:01:53;18.38;;;8.55;;
9799;SDS011;4939;52.00085300;4.17406100;2023-02-28T09:04:18;16.67;;;7.97;;
9799;SDS011;4939;52.00085300;4.17406100;2023-02-28T09:06:44;18.27;;;8.00;;
9799;SDS011;4939;52.00085300;4.17406100;2023-02-28T09:09:10;16.85;;;8.13;;
9799;SDS011;4939;52.00085300;4.17406100;2023-02-28T09:11:36;18.48;;;8.50;;
9799;SDS011;4939;52.00085300;4.17406100;2023-02-28T09:14:02;17.75;;;8.10;;
9799;SDS011;4939;52.00085300;4.17406100;2023-02-28T09:16:28;17.27;;;8.25;;
9799;SDS011;4939;52.00085300;4.17406100;2023-02-28T09:18:56;13.80;;;7.72;;
9799;SDS011;4939;52.00085300;4.17406100;2023-02-28T09:21:21;15.82;;;8.02;;
9799;SDS011;4939;52.00085300;4.17406100;2023-02-28T09:23:48;15.75;;;8.00;;
9799;SDS011;4939;52.00085300;4.17406100;2023-02-28T09:28:42;17.95;;;7.15;;
9799;SDS011;4939;52.00085300;4.17406100;2023-02-28T09:31:18;11.90;;;5.88;;
9799;SDS011;4939;52.00085300;4.17406100;2023-02-28T09:33:49;11.05;;;5.80;;
9799;SDS011;4939;52.00085300;4.17406100;2023-02-28T09:36:15;12.10;;;5.90;;
9799;SDS011;4939;52.00085300;4.17406100;2023-02-28T09:38:41;10.82;;;5.38;;
9799;SDS011;4939;52.00085300;4.17406100;2023-02-28T09:41:21;11.95;;;5.80;;
9799;SDS011;4939;52.00085300;4.17406100;2023-02-28T09:43:53;13.15;;;5.20;;
9799;SDS011;4939;52.00085300;4.17406100;2023-02-28T09:46:44;9.15;;;4.43;;
9799;SDS011;4939;52.00085300;4.17406100;2023-02-28T09:49:19;9.80;;;4.30;;
9799;SDS011;4939;52.00085300;4.17406100;2023-02-28T09:51:56;6.22;;;3.42;;
9799;SDS011;4939;52.00085300;4.17406100;2023-02-28T09:54:28;7.90;;;3.70;;
9799;SDS011;4939;52.00085300;4.17406100;2023-02-28T09:57:07;7.82;;;4.13;;
9799;SDS011;4939;52.00085300;4.17406100;2023-02-28T09:59:44;6.23;;;3.20;;
9799;SDS011;4939;52.00085300;4.17406100;2023-02-28T10:08:16;7.28;;;3.53;;
9799;SDS011;4939;52.00085300;4.17406100;2023-02-28T10:10:51;6.13;;;3.15;;
9799;SDS011;4939;52.00085300;4.17406100;2023-02-28T10:16:05;6.75;;;2.95;;
9799;SDS011;4939;52.00085300;4.17406100;2023-02-28T10:19:05;4.95;;;2.90;;
9799;SDS011;4939;52.00085300;4.17406100;2023-02-28T10:21:39;5.38;;;2.65;;
9799;SDS011;4939;52.00085300;4.17406100;2023-02-28T10:24:16;7.45;;;2.88;;
9799;SDS011;4939;52.00085300;4.17406100;2023-02-28T10:26:49;5.18;;;2.45;;
9799;SDS011;4939;52.00085300;4.17406100;2023-02-28T10:31:46;4.60;;;2.30;;
9799;SDS011;4939;52.00085300;4.17406100;2023-02-28T10:34:12;7.72;;;3.17;;
9799;SDS011;4939;52.00085300;4.17406100;2023-02-28T10:36:38;4.68;;;2.50;;
9799;SDS011;4939;52.00085300;4.17406100;2023-02-28T10:42:04;4.00;;;2.40;;
9799;SDS011;4939;52.00085300;4.17406100;2023-02-28T10:44:43;6.85;;;2.60;;
9799;SDS011;4939;52.00085300;4.17406100;2023-02-28T10:47:13;4.43;;;2.50;;
9799;SDS011;4939;52.00085300;4.17406100;2023-02-28T10:49:45;5.32;;;2.90;;
9799;SDS011;4939;52.00085300;4.17406100;2023-02-28T10:52:12;5.10;;;2.95;;
9799;SDS011;4939;52.00085300;4.17406100;2023-02-28T10:54:38;5.07;;;2.70;;
9799;SDS011;4939;52.00085300;4.17406100;2023-02-28T10:57:22;7.68;;;3.05;;
9799;SDS011;4939;52.00085300;4.17406100;2023-02-28T11:00:05;6.38;;;3.05;;
9799;SDS011;4939;52.00085300;4.17406100;2023-02-28T11:02:38;5.40;;;2.78;;
9799;SDS011;4939;52.00085300;4.17406100;2023-02-28T11:05:30;6.60;;;3.35;;
9799;SDS011;4939;52.00085300;4.17406100;2023-02-28T11:08:18;6.07;;;3.20;;
9799;SDS011;4939;52.00085300;4.17406100;2023-02-28T11:10:47;7.75;;;3.22;;
9799;SDS011;4939;52.00085300;4.17406100;2023-02-28T11:13:27;7.35;;;3.40;;
9799;SDS011;4939;52.00085300;4.17406100;2023-02-28T11:15:57;9.20;;;3.50;;
9799;SDS011;4939;52.00085300;4.17406100;2023-02-28T11:18:37;6.25;;;3.38;;
9799;SDS011;4939;52.00085300;4.17406100;2023-02-28T11:21:18;7.40;;;3.35;;
9799;SDS011;4939;52.00085300;4.17406100;2023-02-28T11:23:51;7.07;;;3.05;;
9799;SDS011;4939;52.00085300;4.17406100;2023-02-28T11:26:37;6.07;;;2.70;;
9799;SDS011;4939;52.00085300;4.17406100;2023-02-28T11:29:11;4.85;;;2.47;;
9799;SDS011;4939;52.00085300;4.17406100;2023-02-28T11:32:00;7.72;;;3.50;;
9799;SDS011;4939;52.00085300;4.17406100;2023-02-28T11:34:27;5.68;;;2.92;;
9799;SDS011;4939;52.00085300;4.17406100;2023-02-28T11:36:54;4.63;;;2.70;;
9799;SDS011;4939;52.00085300;4.17406100;2023-02-28T11:39:22;4.28;;;2.50;;
9799;SDS011;4939;52.00085300;4.17406100;2023-02-28T11:42:07;5.20;;;2.70;;
9799;SDS011;4939;52.00085300;4.17406100;2023-02-28T11:52:52;5.70;;;2.70;;
9799;SDS011;4939;52.00085300;4.17406100;2023-02-28T11:55:26;5.00;;;2.70;;
9799;SDS011;4939;52.00085300;4.17406100;2023-02-28T12:01:23;4.97;;;2.80;;
9799;SDS011;4939;52.00085300;4.17406100;2023-02-28T12:04:10;4.38;;;2.25;;
9799;SDS011;4939;52.00085300;4.17406100;2023-02-28T12:06:49;4.78;;;2.60;;
9799;SDS011;4939;52.00085300;4.17406100;2023-02-28T12:09:23;5.05;;;2.53;;
9799;SDS011;4939;52.00085300;4.17406100;2023-02-28T12:23:15;4.03;;;2.75;;
9799;SDS011;4939;52.00085300;4.17406100;2023-02-28T12:28:46;5.25;;;3.00;;
9799;SDS011;4939;52.00085300;4.17406100;2023-02-28T12:31:19;5.03;;;3.15;;
9799;SDS011;4939;52.00085300;4.17406100;2023-02-28T12:33:53;5.50;;;3.10;;
9799;SDS011;4939;52.00085300;4.17406100;2023-02-28T12:36:24;5.35;;;3.22;;
9799;SDS011;4939;52.00085300;4.17406100;2023-02-28T12:39:01;4.47;;;2.92;;
9799;SDS011;4939;52.00085300;4.17406100;2023-02-28T12:41:49;4.60;;;3.00;;
9799;SDS011;4939;52.00085300;4.17406100;2023-02-28T12:44:35;4.55;;;2.70;;
9799;SDS011;4939;52.00085300;4.17406100;2023-02-28T12:47:15;5.40;;;2.97;;
9799;SDS011;4939;52.00085300;4.17406100;2023-02-28T12:49:45;6.63;;;2.65;;
9799;SDS011;4939;52.00085300;4.17406100;2023-02-28T12:52:37;4.05;;;2.42;;
9799;SDS011;4939;52.00085300;4.17406100;2023-02-28T12:55:42;3.40;;;2.42;;
9799;SDS011;4939;52.00085300;4.17406100;2023-02-28T12:58:27;3.70;;;2.40;;
9799;SDS011;4939;52.00085300;4.17406100;2023-02-28T13:04:08;3.28;;;2.22;;
9799;SDS011;4939;52.00085300;4.17406100;2023-02-28T13:06:42;4.80;;;2.30;;
9799;SDS011;4939;52.00085300;4.17406100;2023-02-28T13:09:29;3.45;;;2.30;;
9799;SDS011;4939;52.00085300;4.17406100;2023-02-28T13:11:55;4.53;;;2.33;;
9799;SDS011;4939;52.00085300;4.17406100;2023-02-28T13:14:24;4.68;;;2.97;;
9799;SDS011;4939;52.00085300;4.17406100;2023-02-28T13:17:11;5.90;;;3.00;;
9799;SDS011;4939;52.00085300;4.17406100;2023-02-28T13:24:55;4.85;;;2.80;;
9799;SDS011;4939;52.00085300;4.17406100;2023-02-28T13:29:57;4.20;;;2.63;;
9799;SDS011;4939;52.00085300;4.17406100;2023-02-28T13:32:33;4.25;;;2.75;;
9799;SDS011;4939;52.00085300;4.17406100;2023-02-28T13:37:34;4.95;;;2.53;;
9799;SDS011;4939;52.00085300;4.17406100;2023-02-28T13:42:36;4.22;;;2.67;;
9799;SDS011;4939;52.00085300;4.17406100;2023-02-28T13:48:01;4.85;;;2.90;;
9799;SDS011;4939;52.00085300;4.17406100;2023-02-28T13:50:34;6.40;;;2.78;;
9799;SDS011;4939;52.00085300;4.17406100;2023-02-28T13:53:14;4.88;;;2.70;;
9799;SDS011;4939;52.00085300;4.17406100;2023-02-28T14:04:09;3.90;;;2.55;;
9799;SDS011;4939;52.00085300;4.17406100;2023-02-28T14:06:57;3.45;;;2.08;;
9799;SDS011;4939;52.00085300;4.17406100;2023-02-28T14:09:28;5.07;;;2.25;;
9799;SDS011;4939;52.00085300;4.17406100;2023-02-28T14:12:17;3.85;;;2.28;;
9799;SDS011;4939;52.00085300;4.17406100;2023-02-28T14:15:02;3.90;;;2.55;;
9799;SDS011;4939;52.00085300;4.17406100;2023-02-28T14:17:30;3.60;;;2.58;;
9799;SDS011;4939;52.00085300;4.17406100;2023-02-28T14:19:57;3.95;;;2.30;;
9799;SDS011;4939;52.00085300;4.17406100;2023-02-28T14:22:37;3.33;;;2.50;;
9799;SDS011;4939;52.00085300;4.17406100;2023-02-28T14:31:35;4.05;;;2.50;;
9799;SDS011;4939;52.00085300;4.17406100;2023-02-28T14:36:55;5.70;;;2.60;;
9799;SDS011;4939;52.00085300;4.17406100;2023-02-28T14:39:25;5.20;;;2.60;;
9799;SDS011;4939;52.00085300;4.17406100;2023-02-28T14:41:57;4.28;;;2.67;;
9799;SDS011;4939;52.00085300;4.17406100;2023-02-28T14:44:29;4.47;;;2.75;;
9799;SDS011;4939;52.00085300;4.17406100;2023-02-28T14:46:57;3.72;;;2.50;;
9799;SDS011;4939;52.00085300;4.17406100;2023-02-28T14:49:29;4.93;;;2.78;;
9799;SDS011;4939;52.00085300;4.17406100;2023-02-28T14:54:46;5.38;;;2.92;;
9799;SDS011;4939;52.00085300;4.17406100;2023-02-28T14:57:32;3.92;;;2.85;;
9799;SDS011;4939;52.00085300;4.17406100;2023-02-28T15:00:16;5.07;;;3.17;;
9799;SDS011;4939;52.00085300;4.17406100;2023-02-28T15:02:54;4.15;;;2.90;;
9799;SDS011;4939;52.00085300;4.17406100;2023-02-28T15:05:28;4.82;;;2.95;;
9799;SDS011;4939;52.00085300;4.17406100;2023-02-28T15:08:03;4.78;;;3.08;;
9799;SDS011;4939;52.00085300;4.17406100;2023-02-28T15:10:35;4.10;;;2.95;;
9799;SDS011;4939;52.00085300;4.17406100;2023-02-28T15:13:02;5.75;;;3.28;;
9799;SDS011;4939;52.00085300;4.17406100;2023-02-28T15:18:15;5.70;;;3.53;;